Time;durP1;ratioP1;P1;durP2;ratioP2;P2;SDS_P1;SDS_P2;PMS_P1;PMS_P2;Temp;Humidity;BMP_temperature;BMP_pressure;BME280_temperature;BME280_humidity;BME280_pressure;Samples;Min_cycle;Max_cycle;Signal;HPM_P1;HPM_P2
2022/09/07 00:03:56;;;;;;;15.70;8.38;;;;;;;16.17;100.00;101041.66;10300951;28;20544;-77
2022/09/07 00:08:57;;;;;;;12.90;7.05;;;;;;;16.05;100.00;101014.06;10318920;28;20545;-77
2022/09/07 00:13:57;;;;;;;11.73;8.45;;;;;;;16.00;100.00;101020.97;10346077;28;20125;-77
2022/09/07 00:18:59;;;;;;;12.30;9.35;;;;;;;16.03;100.00;101051.84;10319483;28;20046;-77
2022/09/07 00:24:00;;;;;;;14.88;7.57;;;;;;;15.93;100.00;101035.75;10300685;28;20039;-77
2022/09/07 00:29:01;;;;;;;11.20;8.35;;;;;;;15.81;100.00;101027.47;10334543;28;20058;-77
2022/09/07 00:34:02;;;;;;;9.97;8.57;;;;;;;15.64;100.00;101029.59;10319010;28;20053;-77
2022/09/07 00:39:03;;;;;;;11.85;8.30;;;;;;;15.48;100.00;101023.84;10316714;28;20058;-77
2022/09/07 00:44:41;;;;;;;11.82;8.30;;;;;;;15.34;100.00;101012.91;10316010;28;20034;-77
2022/09/07 00:49:41;;;;;;;13.45;6.82;;;;;;;15.22;100.00;101017.81;10319631;28;20038;-77
2022/09/07 00:54:44;;;;;;;14.50;8.27;;;;;;;15.25;100.00;101031.09;10333820;28;20042;-77
2022/09/07 00:59:47;;;;;;;15.95;10.48;;;;;;;15.32;100.00;101032.16;10332449;28;20085;-78
2022/09/07 01:04:49;;;;;;;27.45;11.63;;;;;;;15.37;100.00;101043.72;10337715;28;20491;-78
2022/09/07 01:09:50;;;;;;;13.95;10.00;;;;;;;15.36;100.00;101040.22;10316345;28;20464;-78
2022/09/07 01:14:51;;;;;;;13.45;11.02;;;;;;;15.32;100.00;101053.25;10335145;28;20042;-77
2022/09/07 01:20:00;;;;;;;12.73;9.48;;;;;;;15.35;100.00;101053.34;10307152;28;20129;-79
2022/09/07 01:25:27;;;;;;;15.35;10.32;;;;;;;15.41;100.00;101062.34;10332536;28;20073;-78
2022/09/07 01:30:27;;;;;;;16.80;11.75;;;;;;;15.46;100.00;101051.94;10313773;28;20482;-79
2022/09/07 01:35:35;;;;;;;14.45;10.80;;;;;;;15.51;100.00;101041.53;10342723;28;20087;-78
2022/09/07 01:40:47;;;;;;;17.00;11.13;;;;;;;15.49;100.00;101038.84;10340400;28;20050;-78
2022/09/07 01:45:48;;;;;;;;;;;;;;;15.51;100.00;101042.41;10324593;28;20050;-78
2022/09/07 01:50:51;;;;;;;18.57;11.33;;;;;;;15.52;100.00;101038.94;10306934;28;19922;-78
2022/09/07 01:56:03;;;;;;;31.38;10.02;;;;;;;15.43;100.00;101041.28;10323104;28;20285;-79
2022/09/07 02:01:09;;;;;;;17.92;11.23;;;;;;;15.33;100.00;101036.56;10316224;28;20034;-79
2022/09/07 02:06:14;;;;;;;14.75;9.73;;;;;;;15.19;100.00;101029.13;10323165;28;20408;-80
2022/09/07 02:11:35;;;;;;;18.35;11.93;;;;;;;15.08;100.00;101034.09;10327912;28;20034;-80
2022/09/07 02:16:39;;;;;;;12.88;10.07;;;;;;;14.98;100.00;101032.00;10353054;28;20051;-79
2022/09/07 02:21:42;;;;;;;32.80;13.90;;;;;;;14.81;100.00;101023.53;10330655;28;20123;-79
2022/09/07 02:26:44;;;;;;;58.38;14.02;;;;;;;14.67;100.00;101018.66;10312558;28;20048;-79
2022/09/07 02:31:46;;;;;;;14.07;8.45;;;;;;;14.67;100.00;101026.56;10305606;28;20038;-80
2022/09/07 02:36:47;;;;;;;17.80;11.00;;;;;;;14.67;100.00;101025.69;10321187;28;20057;-79
2022/09/07 02:41:48;;;;;;;16.80;10.27;;;;;;;14.73;100.00;101019.75;10338957;28;20051;-79
2022/09/07 02:47:03;;;;;;;25.02;11.23;;;;;;;14.68;100.00;101023.09;10321223;28;20143;-79
2022/09/07 02:52:15;;;;;;;19.02;11.98;;;;;;;14.59;100.00;101014.88;10323021;28;20057;-79
2022/09/07 02:57:26;;;;;;;22.17;15.20;;;;;;;14.47;100.00;101003.94;10335293;28;20057;-79
2022/09/07 03:02:50;;;;;;;26.37;15.07;;;;;;;14.37;100.00;101002.75;10333914;28;20046;-79
2022/09/07 03:08:17;;;;;;;19.38;11.13;;;;;;;14.28;100.00;100998.03;10305780;28;20066;-78
2022/09/07 03:13:22;;;;;;;17.65;9.20;;;;;;;14.24;100.00;101006.69;10334408;28;20468;-78
2022/09/07 03:18:23;;;;;;;27.25;13.35;;;;;;;14.19;100.00;101002.97;10289958;28;20081;-79
2022/09/07 03:23:24;;;;;;;9.38;6.10;;;;;;;14.04;100.00;101006.88;10340796;28;20119;-79
2022/09/07 03:28:24;;;;;;;19.23;11.82;;;;;;;14.02;100.00;101002.41;10317590;28;20096;-79
2022/09/07 03:33:25;;;;;;;16.42;10.52;;;;;;;14.00;100.00;100991.81;10337799;28;20097;-79
2022/09/07 03:38:25;;;;;;;15.88;11.15;;;;;;;13.91;100.00;100987.13;10336201;28;20038;-80
2022/09/07 03:43:26;;;;;;;20.27;10.40;;;;;;;13.85;100.00;100991.25;10356061;28;20565;-79
2022/09/07 03:48:31;;;;;;;78.45;17.60;;;;;;;13.82;100.00;100981.53;10317735;28;20057;-80
2022/09/07 03:53:36;;;;;;;19.10;9.73;;;;;;;13.72;100.00;100976.78;10345983;28;20117;-78
2022/09/07 03:58:37;;;;;;;16.08;10.80;;;;;;;13.65;100.00;100973.00;10320022;28;20109;-78
2022/09/07 04:03:38;;;;;;;19.20;10.77;;;;;;;13.74;100.00;100981.25;10358967;28;20037;-78
2022/09/07 04:08:39;;;;;;;10.27;6.43;;;;;;;13.58;100.00;100974.53;10316197;28;20061;-79
2022/09/07 04:13:40;;;;;;;58.10;13.85;;;;;;;13.63;100.00;100985.22;10361491;28;20041;-77
2022/09/07 04:18:40;;;;;;;15.55;9.50;;;;;;;13.61;100.00;100986.88;10298159;28;20030;-78
2022/09/07 04:23:41;;;;;;;32.53;13.45;;;;;;;13.60;100.00;100985.09;10316875;28;20121;-79
2022/09/07 04:28:42;;;;;;;19.55;10.73;;;;;;;13.52;100.00;100984.81;10299895;28;20038;-79
2022/09/07 04:33:43;;;;;;;20.75;11.13;;;;;;;13.52;100.00;100992.72;10311960;28;20041;-78
2022/09/07 04:38:44;;;;;;;19.73;10.63;;;;;;;13.38;100.00;100984.25;10335504;28;20039;-79
2022/09/07 04:43:45;;;;;;;20.42;10.82;;;;;;;13.25;100.00;100979.38;10325905;28;20048;-78
2022/09/07 04:48:52;;;;;;;58.45;13.15;;;;;;;13.31;100.00;100991.03;10293817;28;20038;-80
2022/09/07 04:53:54;;;;;;;23.15;12.82;;;;;;;13.24;100.00;100994.25;10314224;28;20487;-79
2022/09/07 04:58:55;;;;;;;21.65;8.05;;;;;;;13.16;100.00;101001.81;10291202;28;20486;-79
2022/09/07 05:03:58;;;;;;;17.58;10.32;;;;;;;13.35;100.00;101013.06;10312828;28;20034;-81
2022/09/07 05:08:58;;;;;;;15.98;9.35;;;;;;;13.38;100.00;100994.78;10275099;28;1172084;-81
2022/09/07 05:14:00;;;;;;;19.85;11.93;;;;;;;13.53;100.00;100993.59;10315584;28;20042;-79
2022/09/07 05:19:01;;;;;;;26.00;12.10;;;;;;;13.62;100.00;100996.56;10330487;28;20066;-79
2022/09/07 05:24:03;;;;;;;22.70;11.95;;;;;;;13.71;100.00;101006.56;10315197;28;20396;-81
2022/09/07 05:29:04;;;;;;;23.83;12.83;;;;;;;13.90;100.00;101000.22;10312004;28;20406;-80
2022/09/07 05:34:05;;;;;;;29.43;14.57;;;;;;;14.04;100.00;100991.06;10329794;28;20073;-80
2022/09/07 05:39:05;;;;;;;27.02;16.45;;;;;;;14.16;100.00;100971.28;10323501;28;20574;-79
2022/09/07 05:44:06;;;;;;;20.13;12.48;;;;;;;14.27;100.00;100975.19;10324633;28;20102;-80
2022/09/07 05:49:07;;;;;;;28.85;14.13;;;;;;;14.32;100.00;100983.25;10286870;28;20118;-80
2022/09/07 05:54:09;;;;;;;30.63;16.40;;;;;;;14.32;100.00;100981.50;10325397;28;20049;-80
2022/09/07 05:59:09;;;;;;;;;;;;;;;14.36;100.00;100974.63;10291706;28;20043;-80
2022/09/07 06:04:10;;;;;;;26.00;17.05;;;;;;;14.51;100.00;100997.94;10334775;28;19973;-80
2022/09/07 06:09:11;;;;;;;30.33;17.23;;;;;;;14.73;100.00;101003.94;10298425;28;20129;-80
2022/09/07 06:14:12;;;;;;;46.13;24.02;;;;;;;14.94;100.00;101019.56;10323692;28;20491;-79
2022/09/07 06:19:12;;;;;;;40.42;20.73;;;;;;;15.11;100.00;101013.09;10321333;28;20177;-82
2022/09/07 06:24:13;;;;;;;50.45;27.02;;;;;;;15.23;100.00;101017.84;10353164;28;20046;-83
2022/09/07 06:29:22;;;;;;;39.13;22.48;;;;;;;15.34;100.00;101023.47;10348226;28;20460;-83
2022/09/07 06:34:24;;;;;;;71.15;34.13;;;;;;;15.50;100.00;101021.28;10297669;28;20046;-81
2022/09/07 06:39:25;;;;;;;57.45;30.40;;;;;;;15.58;100.00;101038.22;10333905;28;20173;-79
2022/09/07 06:44:26;;;;;;;72.90;36.75;;;;;;;15.65;100.00;101045.47;10338166;28;20454;-79
2022/09/07 06:49:26;;;;;;;82.90;41.58;;;;;;;15.66;100.00;101060.47;10361483;28;20026;-80
2022/09/07 06:54:27;;;;;;;83.00;45.08;;;;;;;15.69;100.00;101059.66;10363969;28;20113;-79
2022/09/07 06:59:28;;;;;;;81.82;44.90;;;;;;;15.69;100.00;101068.47;10362847;28;20091;-78
2022/09/07 07:04:28;;;;;;;80.43;43.03;;;;;;;15.71;100.00;101061.50;10345864;28;20142;-79
2022/09/07 07:09:29;;;;;;;97.43;49.50;;;;;;;15.66;100.00;101054.28;10346224;28;20046;-76
2022/09/07 07:14:29;;;;;;;93.28;48.35;;;;;;;15.71;100.00;101053.56;10303317;28;20049;-77
2022/09/07 07:19:30;;;;;;;84.60;47.60;;;;;;;15.74;100.00;101055.41;10301798;28;20066;-78
2022/09/07 07:24:30;;;;;;;91.85;49.97;;;;;;;15.75;100.00;101059.81;10309928;28;20123;-79
2022/09/07 07:29:31;;;;;;;92.38;51.38;;;;;;;15.82;100.00;101047.72;10314749;28;20042;-79
2022/09/07 07:34:31;;;;;;;87.72;49.95;;;;;;;16.08;100.00;101048.47;10321061;28;20070;-79
2022/09/07 07:39:32;;;;;;;91.60;52.17;;;;;;;16.41;100.00;101060.81;10319640;28;20085;-79
2022/09/07 07:44:32;;;;;;;80.15;48.25;;;;;;;16.72;100.00;101058.09;10319760;28;20046;-81
2022/09/07 07:49:33;;;;;;;68.53;40.35;;;;;;;17.01;100.00;101058.84;10317263;28;20137;-82
2022/09/07 07:54:35;;;;;;;69.22;40.22;;;;;;;17.55;100.00;101055.66;10318138;28;20124;-81
2022/09/07 07:59:36;;;;;;;46.20;28.13;;;;;;;18.09;100.00;101054.16;10305696;28;20069;-82
2022/09/07 08:04:36;;;;;;;32.90;24.05;;;;;;;17.99;100.00;101066.28;10302780;28;20125;-82
2022/09/07 08:09:41;;;;;;;33.45;25.35;;;;;;;17.91;100.00;101065.25;10314140;28;20551;-81
2022/09/07 08:14:42;;;;;;;38.42;25.48;;;;;;;17.91;100.00;101070.53;10318186;28;20026;-83
2022/09/07 08:19:42;;;;;;;36.10;25.38;;;;;;;17.96;100.00;101068.88;10318389;28;20383;-82
2022/09/07 08:24:43;;;;;;;39.88;24.85;;;;;;;18.42;100.00;101071.56;10323045;28;20049;-82
2022/09/07 08:29:43;;;;;;;31.67;22.38;;;;;;;21.40;90.77;101066.44;10317458;28;20411;-83
2022/09/07 08:34:44;;;;;;;22.73;17.77;;;;;;;23.18;78.27;101066.88;10347537;28;20038;-86
2022/09/07 08:39:44;;;;;;;23.13;16.63;;;;;;;23.98;71.44;101055.97;10327225;28;20482;-83
2022/09/07 08:44:52;;;;;;;20.40;16.60;;;;;;;24.26;70.06;101070.09;10310160;28;20038;-86
2022/09/07 08:50:01;;;;;;;22.42;17.77;;;;;;;24.80;67.83;101067.97;10307152;28;20046;-85
2022/09/07 08:55:09;;;;;;;18.60;13.95;;;;;;;23.41;69.35;101075.78;10318745;28;20094;-85
2022/09/07 09:00:13;;;;;;;21.58;17.13;;;;;;;21.44;77.60;101081.53;10276544;28;20708;-83
2022/09/07 09:05:14;;;;;;;27.25;19.88;;;;;;;20.87;84.31;101082.00;10317619;28;20047;-83
2022/09/07 09:10:30;;;;;;;29.03;17.73;;;;;;;21.38;86.30;101092.16;10316777;28;20065;-82
2022/09/07 09:15:51;;;;;;;20.95;16.45;;;;;;;22.64;76.75;101088.25;10320210;28;20049;-85
2022/09/07 09:20:53;;;;;;;19.67;15.27;;;;;;;24.74;67.56;101091.22;10317654;28;20050;-86
2022/09/07 09:25:55;;;;;;;18.75;14.25;;;;;;;26.44;63.75;101092.03;10300642;28;20038;-85
2022/09/07 09:30:56;;;;;;;17.05;13.70;;;;;;;28.42;56.41;101092.88;10299609;28;20050;-87
2022/09/07 09:35:58;;;;;;;17.30;14.40;;;;;;;27.61;54.93;101091.88;10318985;28;20121;-84
2022/09/07 09:41:03;;;;;;;13.93;12.52;;;;;;;25.99;61.34;101098.00;10306882;28;20053;-84
2022/09/07 09:46:04;;;;;;;15.75;12.60;;;;;;;27.29;57.75;101092.47;10324659;28;20062;-83
2022/09/07 09:51:05;;;;;;;16.88;12.95;;;;;;;25.95;58.79;101098.06;10306721;28;20030;-86
2022/09/07 09:56:06;;;;;;;16.70;14.98;;;;;;;23.68;66.00;101101.50;10324434;28;20045;-85
2022/09/07 10:01:18;;;;;;;21.33;14.73;;;;;;;24.96;61.96;101098.16;10305778;28;20748;-86
2022/09/07 10:06:19;;;;;;;16.30;11.85;;;;;;;26.99;56.13;101092.09;10310353;28;20126;-84
2022/09/07 10:11:19;;;;;;;15.80;12.57;;;;;;;30.09;47.67;101084.88;10347199;28;20038;-86
2022/09/07 10:16:33;;;;;;;11.00;7.00;;;;;;;31.03;45.07;101089.06;10341941;28;20059;-87
2022/09/07 10:21:33;;;;;;;10.20;7.88;;;;;;;27.30;51.31;101094.22;10336651;28;20089;-79
2022/09/07 10:26:35;;;;;;;12.17;8.73;;;;;;;26.89;53.82;101088.69;10339237;28;20116;-79
2022/09/07 10:31:40;;;;;;;10.60;7.88;;;;;;;27.54;52.44;101083.03;10322175;28;20049;-79
2022/09/07 10:37:03;;;;;;;12.52;7.57;;;;;;;28.30;49.12;101077.88;10335789;28;20080;-78
2022/09/07 10:42:23;;;;;;;62.13;49.45;;;;;;;28.82;48.14;101078.47;10341187;28;20049;-81
2022/09/07 10:47:48;;;;;;;9.30;6.30;;;;;;;27.68;50.55;101076.50;10343332;28;20042;-76
2022/09/07 10:53:07;;;;;;;10.43;6.93;;;;;;;27.56;49.50;101083.03;10329198;28;20050;-77
2022/09/07 10:58:36;;;;;;;10.60;7.75;;;;;;;27.71;50.47;101063.00;10358272;28;20133;-81
2022/09/07 11:04:03;;;;;;;8.00;4.20;;;;;;;29.16;45.53;101061.44;10332452;28;20072;-79
2022/09/07 11:09:15;;;;;;;7.53;5.13;;;;;;;28.19;46.92;101059.31;10340449;28;20045;-82
2022/09/07 11:14:18;;;;;;;6.15;3.00;;;;;;;27.72;49.13;101061.22;10335798;28;20137;-79
2022/09/07 11:19:21;;;;;;;11.02;4.28;;;;;;;29.66;44.05;101057.38;10343801;28;20402;-80
2022/09/07 11:24:50;;;;;;;5.38;2.67;;;;;;;31.09;40.18;101055.56;10347172;28;20050;-79
2022/09/07 11:29:54;;;;;;;6.70;2.05;;;;;;;31.16;36.56;101043.59;10361304;28;20447;-80
2022/09/07 11:35:00;;;;;;;9.45;2.83;;;;;;;31.34;37.77;101041.19;10344475;28;20033;-82
2022/09/07 11:40:26;;;;;;;6.65;2.28;;;;;;;31.90;35.97;101036.41;10344120;28;20034;-83
2022/09/07 11:45:30;;;;;;;7.55;1.75;;;;;;;26.94;43.74;101050.09;10344522;28;20041;-79
2022/09/07 11:50:34;;;;;;;3.22;1.50;;;;;;;26.36;47.21;101043.88;10359591;28;20037;-78
2022/09/07 11:55:37;;;;;;;5.15;1.60;;;;;;;26.56;47.83;101040.00;10343122;28;20390;-79
2022/09/07 12:00:37;;;;;;;6.43;2.20;;;;;;;27.47;45.26;101038.38;10358106;28;20038;-78
2022/09/07 12:05:44;;;;;;;5.57;2.03;;;;;;;27.15;47.62;101028.25;10358492;28;20042;-78
2022/09/07 12:11:35;;;;;;;6.53;1.60;;;;;;;29.56;41.89;101023.53;10360182;28;20099;-76
2022/09/07 12:17:00;;;;;;;6.07;1.92;;;;;;;29.85;40.20;101024.47;10354116;28;20038;-78
2022/09/07 12:22:01;;;;;;;7.35;2.50;;;;;;;29.83;39.97;101013.72;10331357;28;20116;-80
2022/09/07 12:27:20;;;;;;;4.47;1.40;;;;;;;30.44;36.17;101010.00;10316230;28;20035;-79
2022/09/07 12:32:45;;;;;;;6.78;1.55;;;;;;;29.01;41.97;101010.66;10320318;28;20304;-79
2022/09/07 12:37:46;;;;;;;3.38;1.77;;;;;;;29.53;40.14;101002.06;10317983;28;20124;-76
2022/09/07 12:42:46;;;;;;;4.20;1.27;;;;;;;30.91;39.75;100995.84;10339016;28;20563;-76
2022/09/07 12:47:55;;;;;;;3.43;1.23;;;;;;;31.06;35.73;100988.97;10323503;28;20136;-75
2022/09/07 12:53:38;;;;;;;6.63;4.18;;;;;;;30.94;36.78;100991.25;10317353;28;20121;-76
2022/09/07 12:59:03;;;;;;;6.95;1.65;;;;;;;31.26;33.60;100987.38;10327186;28;20041;-75
2022/09/07 13:04:10;;;;;;;4.07;1.30;;;;;;;31.25;36.48;100982.94;10357574;28;20081;-75
2022/09/07 13:09:11;;;;;;;4.20;1.65;;;;;;;29.87;38.10;100983.00;10350087;28;20136;-75
2022/09/07 13:14:14;;;;;;;4.43;1.53;;;;;;;28.23;40.05;100982.09;10325755;28;20126;-76
2022/09/07 13:19:35;;;;;;;2.92;1.50;;;;;;;27.47;42.34;100979.25;10325152;28;20047;-76
2022/09/07 13:24:46;;;;;;;4.90;1.50;;;;;;;29.82;38.54;100965.22;10367886;28;20042;-76
2022/09/07 13:29:55;;;;;;;10.98;1.40;;;;;;;27.10;41.47;100958.50;10342340;28;20045;-80
2022/09/07 13:35:04;;;;;;;8.50;4.07;;;;;;;27.01;44.64;100958.69;10326051;28;20023;-80
2022/09/07 13:40:08;;;;;;;3.72;1.55;;;;;;;27.09;44.37;100956.72;10324968;28;20070;-82
2022/09/07 13:45:27;;;;;;;5.20;1.92;;;;;;;26.96;46.24;100945.38;10324636;28;20117;-79
2022/09/07 13:50:38;;;;;;;8.35;1.58;;;;;;;29.20;38.94;100935.56;10332525;28;20490;-81
2022/09/07 13:55:59;;;;;;;4.10;1.48;;;;;;;30.91;35.20;100940.91;10340807;28;20081;-77
2022/09/07 14:01:04;;;;;;;4.03;1.17;;;;;;;31.40;33.76;100931.91;10326274;28;20517;-76
2022/09/07 14:06:19;;;;;;;5.28;1.90;;;;;;;28.64;37.27;100937.09;10363620;28;20072;-77
2022/09/07 14:11:40;;;;;;;2.22;1.15;;;;;;;26.79;44.23;100940.28;10354590;28;20461;-76
2022/09/07 14:16:43;;;;;;;3.57;1.73;;;;;;;27.46;41.89;100925.53;10324876;28;20022;-78
2022/09/07 14:21:51;;;;;;;3.78;1.67;;;;;;;29.43;37.16;100923.25;10349084;28;20038;-77
2022/09/07 14:26:52;;;;;;;6.97;1.10;;;;;;;29.66;36.66;100929.75;10319437;28;20085;-78
2022/09/07 14:31:52;;;;;;;4.37;1.30;;;;;;;29.21;36.37;100929.25;10337765;28;20113;-78
2022/09/07 14:36:53;;;;;;;3.77;1.97;;;;;;;28.54;38.50;100916.72;10321259;28;20038;-80
2022/09/07 14:41:54;;;;;;;3.95;1.42;;;;;;;28.45;38.35;100916.97;10335773;28;20049;-80
2022/09/07 14:46:55;;;;;;;3.00;1.88;;;;;;;28.29;37.96;100930.81;10322616;28;20061;-83
2022/09/07 14:51:55;;;;;;;6.37;1.60;;;;;;;27.90;39.33;100915.59;10320584;28;20046;-83
2022/09/07 14:57:12;;;;;;;5.20;1.63;;;;;;;27.53;40.11;100922.72;10304121;28;20475;-83
2022/09/07 15:02:22;;;;;;;11.00;3.13;;;;;;;25.82;43.51;100922.19;10334846;28;20521;-80
2022/09/07 15:07:27;;;;;;;4.95;1.70;;;;;;;25.88;43.79;100913.16;10361530;28;20038;-82
2022/09/07 15:12:27;;;;;;;3.20;1.45;;;;;;;25.73;45.28;100916.97;10362200;28;20069;-81
2022/09/07 15:17:31;;;;;;;3.77;2.27;;;;;;;26.45;42.56;100920.31;10340190;28;20490;-80
2022/09/07 15:22:32;;;;;;;3.50;1.13;;;;;;;27.37;40.45;100914.09;10335905;28;20066;-79
2022/09/07 15:27:32;;;;;;;3.93;1.50;;;;;;;27.20;40.62;100906.38;10321843;28;20042;-81
2022/09/07 15:32:33;;;;;;;5.57;1.57;;;;;;;28.03;39.70;100905.41;10362563;28;20128;-79
2022/09/07 15:37:33;;;;;;;4.23;1.30;;;;;;;28.32;39.62;100900.28;10339223;28;20284;-78
2022/09/07 15:42:34;;;;;;;4.40;1.27;;;;;;;27.06;38.91;100901.31;10345962;28;20048;-80
2022/09/07 15:47:34;;;;;;;5.73;1.20;;;;;;;25.24;43.91;100897.97;10361486;28;20079;-78
2022/09/07 15:52:35;;;;;;;3.03;1.07;;;;;;;24.02;48.58;100903.59;10334442;28;20045;-78
2022/09/07 15:57:35;;;;;;;2.53;1.13;;;;;;;23.44;49.35;100895.03;10325056;28;20061;-77
2022/09/07 16:02:38;;;;;;;4.40;1.50;;;;;;;23.04;54.32;100905.88;10362058;28;20030;-79
2022/09/07 16:07:40;;;;;;;3.40;1.08;;;;;;;22.73;51.01;100903.28;10342032;28;20045;-80
2022/09/07 16:12:40;;;;;;;2.78;1.00;;;;;;;22.72;52.00;100898.84;10343058;28;20045;-80
2022/09/07 16:17:41;;;;;;;6.10;1.77;;;;;;;22.68;54.91;100897.06;10355087;28;20042;-80
2022/09/07 16:22:41;;;;;;;3.03;1.00;;;;;;;22.39;53.94;100890.88;10319973;28;20137;-80
2022/09/07 16:27:42;;;;;;;4.80;1.50;;;;;;;22.28;54.18;100890.88;10326813;28;20049;-80
2022/09/07 16:32:42;;;;;;;2.73;1.30;;;;;;;22.14;58.21;100895.31;10353236;28;20477;-79
2022/09/07 16:37:43;;;;;;;4.20;1.43;;;;;;;21.80;58.24;100895.28;10339348;28;20122;-80
2022/09/07 16:42:45;;;;;;;2.53;1.40;;;;;;;21.46;60.25;100895.16;10337479;28;20052;-78
2022/09/07 16:47:46;;;;;;;3.38;1.27;;;;;;;21.17;63.55;100895.94;10332921;28;20042;-78
2022/09/07 16:52:46;;;;;;;4.13;1.60;;;;;;;20.96;66.93;100900.28;10314433;28;20459;-78
2022/09/07 16:57:47;;;;;;;4.53;1.40;;;;;;;20.87;65.50;100893.16;10317139;28;20046;-76
2022/09/07 17:02:47;;;;;;;5.55;1.40;;;;;;;20.76;67.02;100879.75;10316867;28;20437;-78
2022/09/07 17:07:48;;;;;;;12.10;2.22;;;;;;;20.53;65.13;100876.97;10319486;28;20061;-78
2022/09/07 17:12:49;;;;;;;5.03;1.55;;;;;;;20.25;69.69;100874.13;10333808;28;20043;-79
2022/09/07 17:17:49;;;;;;;6.85;1.50;;;;;;;19.92;72.65;100871.16;10313810;28;20042;-79
2022/09/07 17:22:51;;;;;;;8.38;2.10;;;;;;;19.64;74.70;100860.25;10301806;28;20039;-78
2022/09/07 17:27:52;;;;;;;3.88;1.60;;;;;;;19.32;76.91;100852.84;10323824;28;20141;-78
2022/09/07 17:32:52;;;;;;;3.60;1.77;;;;;;;18.95;80.23;100859.44;10296146;28;20053;-77
2022/09/07 17:37:53;;;;;;;7.60;3.75;;;;;;;18.57;80.02;100873.91;10285222;28;20151;-77
2022/09/07 17:42:53;;;;;;;3.92;1.52;;;;;;;18.20;80.18;100861.88;10315366;28;20193;-77
2022/09/07 17:47:54;;;;;;;7.78;2.35;;;;;;;17.98;80.64;100857.97;10314597;28;20458;-78
2022/09/07 17:52:54;;;;;;;8.05;1.92;;;;;;;17.91;82.50;100853.44;10297098;28;20062;-78
2022/09/07 17:57:55;;;;;;;3.28;1.55;;;;;;;17.80;83.88;100852.34;10317807;28;20045;-77
2022/09/07 18:02:56;;;;;;;4.00;1.85;;;;;;;17.68;85.20;100860.94;10323511;28;20036;-78
2022/09/07 18:07:56;;;;;;;3.70;2.22;;;;;;;17.48;85.63;100856.19;10289699;28;20443;-78
2022/09/07 18:12:57;;;;;;;5.18;2.50;;;;;;;17.26;86.73;100852.25;10321698;28;20430;-77
2022/09/07 18:17:57;;;;;;;6.50;2.58;;;;;;;17.09;86.79;100854.53;10324916;28;20129;-77
2022/09/07 18:22:59;;;;;;;2.55;2.15;;;;;;;16.85;87.77;100855.75;10320766;28;20062;-79
2022/09/07 18:28:00;;;;;;;6.28;2.85;;;;;;;16.63;88.74;100860.56;10304876;28;20096;-79
2022/09/07 18:33:01;;;;;;;3.00;1.60;;;;;;;16.48;90.02;100857.56;10321704;28;20085;-78
2022/09/07 18:38:01;;;;;;;3.90;1.77;;;;;;;16.29;89.99;100852.78;10305515;28;20100;-78
2022/09/07 18:43:02;;;;;;;7.57;2.60;;;;;;;16.22;91.10;100857.84;10303259;28;20042;-78
2022/09/07 18:48:03;;;;;;;5.80;1.77;;;;;;;16.08;92.06;100870.72;10319748;28;20027;-77
2022/09/07 18:53:04;;;;;;;7.55;2.20;;;;;;;15.99;92.40;100871.38;10323227;28;20049;-77
2022/09/07 18:58:04;;;;;;;5.18;2.08;;;;;;;15.98;91.37;100875.78;10318468;28;20084;-77
2022/09/07 19:03:05;;;;;;;6.45;2.13;;;;;;;16.07;91.36;100882.13;10322695;28;20133;-76
2022/09/07 19:08:05;;;;;;;6.30;2.63;;;;;;;16.05;92.14;100860.97;10343981;28;20401;-75
2022/09/07 19:13:06;;;;;;;5.22;2.03;;;;;;;15.96;94.17;100855.44;10344878;28;20041;-76
2022/09/07 19:18:06;;;;;;;6.93;2.03;;;;;;;15.79;93.74;100845.31;10340825;28;20136;-78
2022/09/07 19:23:07;;;;;;;9.65;2.30;;;;;;;15.63;93.65;100846.69;10295469;28;20035;-77
2022/09/07 19:28:08;;;;;;;12.85;4.95;;;;;;;15.51;95.24;100839.31;10341217;28;20231;-77
2022/09/07 19:33:10;;;;;;;12.63;5.40;;;;;;;15.41;96.13;100838.19;10318596;28;20066;-78
2022/09/07 19:38:32;;;;;;;5.45;2.25;;;;;;;15.36;97.12;100846.81;10337287;28;20671;-77
2022/09/07 19:43:33;;;;;;;4.47;1.75;;;;;;;15.26;96.35;100838.66;10336074;28;20046;-77
2022/09/07 19:48:36;;;;;;;4.55;2.22;;;;;;;15.14;96.92;100833.03;10337293;28;20469;-77
2022/09/07 19:53:38;;;;;;;7.07;2.20;;;;;;;15.00;97.67;100827.38;10338094;28;20042;-77
2022/09/07 19:58:40;;;;;;;13.27;2.60;;;;;;;14.86;98.56;100829.59;10327752;28;20053;-77
2022/09/07 20:03:44;;;;;;;5.15;2.90;;;;;;;14.70;99.51;100825.63;10348397;28;20121;-76
2022/09/07 20:08:46;;;;;;;6.20;4.32;;;;;;;14.53;100.00;100817.16;10338137;28;20042;-76
2022/09/07 20:13:46;;;;;;;9.15;2.25;;;;;;;14.41;100.00;100809.78;10333851;28;20097;-76
2022/09/07 20:18:47;;;;;;;7.63;2.42;;;;;;;14.34;100.00;100808.69;10301247;28;20062;-76
2022/09/07 20:23:47;;;;;;;8.95;2.55;;;;;;;14.24;100.00;100796.09;10331661;28;20038;-76
2022/09/07 20:28:52;;;;;;;8.05;3.20;;;;;;;14.12;100.00;100783.44;10341971;28;20042;-76
2022/09/07 20:33:53;;;;;;;4.15;2.45;;;;;;;14.04;100.00;100790.22;10315804;28;20096;-77
2022/09/07 20:38:54;;;;;;;8.70;2.22;;;;;;;13.98;100.00;100785.63;10328379;28;20057;-77
2022/09/07 20:43:55;;;;;;;5.47;2.27;;;;;;;13.99;100.00;100786.53;10334902;28;20133;-77
2022/09/07 20:48:56;;;;;;;5.38;2.33;;;;;;;13.89;100.00;100766.91;10329555;28;20490;-78
2022/09/07 20:53:57;;;;;;;8.95;3.03;;;;;;;13.88;100.00;100775.66;10327966;28;20034;-76
2022/09/07 20:59:00;;;;;;;8.00;4.43;;;;;;;13.99;100.00;100773.38;10330456;28;20128;-75
2022/09/07 21:04:02;;;;;;;7.05;3.00;;;;;;;14.10;100.00;100753.56;10324019;28;21573;-76
2022/09/07 21:09:03;;;;;;;8.63;5.03;;;;;;;14.19;100.00;100758.19;10299622;28;20085;-77
2022/09/07 21:14:05;;;;;;;5.32;3.55;;;;;;;14.35;100.00;100764.84;10315711;28;20081;-76
2022/09/07 21:19:06;;;;;;;8.95;2.78;;;;;;;14.48;100.00;100772.28;10311926;28;20034;-77
2022/09/07 21:24:15;;;;;;;5.97;2.88;;;;;;;14.63;100.00;100774.44;10333205;28;20034;-77
2022/09/07 21:29:21;;;;;;;8.20;2.80;;;;;;;14.75;100.00;100779.25;10314208;28;20433;-77
2022/09/07 21:34:22;;;;;;;11.48;3.78;;;;;;;14.81;100.00;100771.50;10317779;28;20501;-77
2022/09/07 21:39:22;;;;;;;6.57;2.85;;;;;;;14.86;100.00;100763.72;10323868;28;20050;-77
2022/09/07 21:44:23;;;;;;;7.50;3.05;;;;;;;14.91;100.00;100759.47;10323381;28;20142;-78
2022/09/07 21:49:23;;;;;;;7.78;2.17;;;;;;;14.95;100.00;100768.38;10339199;28;20141;-78
2022/09/07 21:54:24;;;;;;;5.28;2.33;;;;;;;14.95;100.00;100769.25;10363712;28;20121;-77
2022/09/07 21:59:25;;;;;;;7.30;3.45;;;;;;;15.00;100.00;100760.59;10351309;28;20125;-78
2022/09/07 22:04:25;;;;;;;8.40;3.97;;;;;;;15.02;100.00;100758.88;10351492;28;20042;-77
2022/09/07 22:09:26;;;;;;;5.90;3.00;;;;;;;15.03;100.00;100760.66;10358467;28;20042;-77
2022/09/07 22:14:26;;;;;;;9.55;3.90;;;;;;;15.07;100.00;100757.28;10363706;28;20113;-78
2022/09/07 22:19:27;;;;;;;7.90;2.78;;;;;;;15.17;100.00;100769.84;10345650;28;20101;-77
2022/09/07 22:24:27;;;;;;;7.57;2.92;;;;;;;15.26;100.00;100767.47;10321286;28;20234;-77
2022/09/07 22:29:28;;;;;;;9.00;3.70;;;;;;;15.31;100.00;100757.06;10356037;28;20053;-78
2022/09/07 22:34:28;;;;;;;6.85;2.53;;;;;;;15.31;100.00;100753.50;10332854;28;20133;-77
2022/09/07 22:39:29;;;;;;;8.00;2.90;;;;;;;15.23;100.00;100730.47;10338536;28;20045;-77
2022/09/07 22:44:29;;;;;;;9.48;2.85;;;;;;;15.12;100.00;100727.56;10365286;28;20057;-77
2022/09/07 22:49:30;;;;;;;4.85;2.58;;;;;;;15.10;100.00;100736.28;10344622;28;20490;-77
2022/09/07 22:54:31;;;;;;;13.35;3.15;;;;;;;15.19;100.00;100739.16;10322001;28;20038;-77
2022/09/07 22:59:31;;;;;;;7.93;3.33;;;;;;;15.22;100.00;100728.69;10351721;28;20129;-77